Flight Track Log - Related Links

Times and Time Zones

All times are in EST time to prevent confusion due to time zone crossing. See the SWA3383 flight status page for this flight to view local times or setup timezone preferences in your user account.

Time Position Orientation Groundspeed Altitude Reporting Facility
EST Latitude Longitude Course Direction KTS MPH feet Rate Location/Type
Fri 09:05:55 PM 29.6108 -95.3186 226° Southwest 183 211 3,400  Level Houston Center
Fri 09:06:56 PM 29.5592 -95.3728 222° Southwest 255 293 6,900 3,351 Climbing Houston Center
Fri 09:07:12 PM 29.5508 -95.3806 219° Southwest 235 270 7,700 3,738 Climbing Houston Center
Fri 09:07:57 PM 29.5125 -95.4361 232° Southwest 279 321 10,700 4,065 Climbing Houston Center
Fri 09:08:14 PM 29.5192 -95.4572 290° West 279 321 11,900 2,692 Climbing Houston Center
Fri 09:09:15 PM 29.5644 -95.5339 304° West 287 330 14,200 2,878 Climbing Houston Center
Fri 09:10:17 PM 29.6156 -95.6278 302° West 338 389 17,800 3,415 Climbing Houston Center
Fri 09:11:18 PM 29.6681 -95.7228 302° West 347 399 21,200 3,073 Climbing Houston Center
Fri 09:12:20 PM 29.7094 -95.8286 294° West 358 412 24,100 2,710 Climbing Houston Center
Fri 09:13:22 PM 29.7519 -95.9383 294° West 368 423 26,800 2,488 Climbing Houston Center
Fri 09:14:23 PM 29.7969 -96.0569 294° West 376 433 29,200 2,098 Climbing Houston Center
Fri 09:15:25 PM 29.8406 -96.1692 294° West 381 438 31,100 1,951 Climbing Houston Center
Fri 09:16:26 PM 29.8828 -96.2825 293° West 385 443 33,200 2,049 Climbing Houston Center
Fri 09:17:28 PM 29.9253 -96.3939 294° West 385 443 35,300 1,756 Climbing Houston Center
Fri 09:18:29 PM 29.9661 -96.5036 293° West 379 436 36,800 1,463 Climbing Houston Center
Fri 09:19:31 PM 30.0164 -96.6369 294° West 380 437 38,300 1,366 Climbing Houston Center
Fri 09:20:32 PM 30.0583 -96.7500 293° West 384 442 39,600 836 Climbing Houston Center
Fri 09:21:33 PM 30.1006 -96.8611 294° West 383 441 40,000 195 Climbing Houston Center
Fri 09:22:35 PM 30.1456 -96.9867 293° West 380 437 40,000  Level Houston Center
Fri 09:23:36 PM 30.1872 -97.1008 293° West 383 441 40,000  Level Houston Center
Fri 09:24:37 PM 30.2303 -97.2131 294° West 382 440 40,000  Level Houston Center
Fri 09:25:39 PM 30.2700 -97.3247 292° West 372 428 40,000  Level Houston Center
Fri 09:26:40 PM 30.3125 -97.4383 293° West 378 435 40,000  Level Houston Center
Fri 09:27:41 PM 30.3556 -97.5508 294° West 378 435 40,000  Level Houston Center
Fri 09:28:42 PM 30.3931 -97.6436 295° West 378 435 40,000  Level Houston Center
Fri 09:29:44 PM 30.4431 -97.7747 294° West 378 435 40,000  Level Houston Center
Fri 09:30:45 PM 30.4867 -97.8889 294° West 381 438 40,000  Level Houston Center
Fri 09:31:46 PM 30.5294 -98.0025 294° West 380 437 40,000  Level Houston Center
Fri 09:32:47 PM 30.5733 -98.1158 294° West 380 437 40,000  Level Houston Center
Fri 09:33:49 PM 30.6164 -98.2278 294° West 378 435 40,000  Level Houston Center
Fri 09:34:50 PM 30.6586 -98.3394 294° West 374 430 40,000  Level Houston Center
Fri 09:35:51 PM 30.7006 -98.4514 294° West 374 430 40,000  Level Houston Center
Fri 09:36:52 PM 30.7433 -98.5633 294° West 374 430 40,000  Level Houston Center
Fri 09:37:54 PM 30.7856 -98.6781 293° West 378 435 40,000  Level Houston Center
Fri 09:38:55 PM 30.8281 -98.7919 294° West 378 435 40,000  Level Houston Center
Fri 09:39:56 PM 30.8728 -98.9067 294° West 380 437 40,000  Level Houston Center
Fri 09:40:57 PM 30.9133 -99.0222 292° West 380 437 40,000  Level Houston Center
Fri 09:41:58 PM 30.9567 -99.1369 294° West 384 442 40,000  Level Houston Center
Fri 09:43:00 PM 31.0006 -99.2544 294° West 384 442 40,000  Level Houston Center
Fri 09:44:01 PM 31.0425 -99.3681 293° West 384 442 40,000  Level Houston Center
Fri 09:45:03 PM 31.0836 -99.4803 293° West 383 441 40,000  Level Houston Center
Fri 09:46:03 PM 31.1328 -99.6147 293° West 380 437 40,000  Level Houston Center
Fri 09:47:04 PM 31.1733 -99.7272 293° West 378 435 40,000  Level Houston Center
Fri 09:48:06 PM 31.2156 -99.8389 294° West 378 435 40,000  Level Houston Center
Fri 09:49:07 PM 31.2550 -99.9494 293° West 374 430 40,000  Level Houston Center
Fri 09:50:08 PM 31.2956 -100.0625 293° West 375 432 40,000  Level Houston Center
Fri 09:51:09 PM 31.3356 -100.1747 293° West 375 432 40,000 -492 Level Houston Center
Fri 09:52:10 PM 31.3758 -100.2861 293° West 375 432 39,000 -1,059 Descending Houston Center
Fri 09:52:51 PM 31.4061 -100.3731 292° West 374 430 38,200 -1,049 Descending Fort Worth Center
Fri 09:53:53 PM 31.4472 -100.4839 294° West 374 430 37,200 -927 Descending Fort Worth Center
Fri 09:54:54 PM 31.4869 -100.5961 293° West 374 430 36,300 -1,610 Descending Fort Worth Center
Fri 09:55:56 PM 31.5297 -100.7194 292° West 376 433 33,900 -2,585 Descending Fort Worth Center
Fri 09:56:57 PM 31.5703 -100.8308 293° West 375 432 31,000 -2,634 Descending Fort Worth Center
Fri 09:57:59 PM 31.6092 -100.9417 292° West 371 427 28,500 -2,341 Descending Fort Worth Center
Fri 09:59:00 PM 31.6458 -101.0475 292° West 358 412 26,200 -2,244 Descending Fort Worth Center
Fri 10:00:02 PM 31.6806 -101.1478 292° West 339 390 23,900 -2,195 Descending Fort Worth Center
Fri 10:01:03 PM 31.7150 -101.2478 292° West 335 386 21,700 -2,146 Descending Fort Worth Center
Fri 10:02:05 PM 31.7503 -101.3447 293° West 328 377 19,500 -2,390 Descending Fort Worth Center
Fri 10:03:06 PM 31.7894 -101.4614 292° West 324 373 16,800 -2,311 Descending Fort Worth Center
Fri 10:04:07 PM 31.8231 -101.5547 293° West 314 361 14,800 -2,000 Descending Fort Worth Center
Fri 10:05:09 PM 31.8539 -101.6467 292° West 308 354 12,700 -1,951 Descending Fort Worth Center
Fri 10:06:10 PM 31.8850 -101.7361 292° West 299 344 10,800 -1,317 Descending Fort Worth Center
Fri 10:07:12 PM 31.9156 -101.8258 292° West 298 343 10,000 -1,073 Descending Fort Worth Center
Fri 10:08:13 PM 31.9425 -101.9064 292° West 270 311 8,600 -1,033 Descending Fort Worth Center
Fri 10:09:14 PM 31.9694 -101.9850 292° West 265 305 7,900 -732 Descending Fort Worth Center
Fri 10:10:16 PM 31.9956 -102.0622 292° West 224 258 7,100 -878 Descending Fort Worth Center
Fri 10:11:17 PM 32.0139 -102.1178 291° West 195 224 6,100 -934 Descending Fort Worth Center
Fri 10:12:18 PM 32.0314 -102.1681 292° West 176 203 5,200 -780 Descending Fort Worth Center
Fri 10:13:20 PM 32.0367 -102.2081 279° West 149 171 4,500 -732 Descending Fort Worth Center
Fri 10:14:21 PM 31.9992 -102.2100 183° South 142 163 3,700 -787 Descending Fort Worth Center
Fri 10:15:22 PM 31.9625 -102.2056 174° South 138 159 2,900 -787 Descending Fort Worth Center
Fri 10:17:00 PM 31.9425 -102.2019 180° South  Level Estimated

Login

Don't have an account? Register now (free) for customized features, flight alerts, and more!